Veter Od: 18-02-2018 23:00 Do: 19-02-2018 11:59 Opozorilo za: Veter Stopnja: Oranžna info button

Maksimalna hitrost vetra : od 100 do 120 km/h. Veter lomi veje in lahko podira posamezna drevesa, odkriva strehe. Možne so prekinitve v oskrbi z električno energijo. Oviran je cestni, lahko tudi pomorski promet. Gibanje na prostem je zelo oteženo in nevarno. Morje je zmerno vzvalovano do vzvalovano (3-4). Pri gibanju na prostem se izogibajte nevarnih mest. Ne vključujte se v promet, če ni nujno potrebno. Plovila naj bodo privezana na varnih privezih. Ostanite na kopnem. Spremljajte meteorološka obvestila in opozorila ter informacije, ki jih posredujejo pristojne službe in organi.

METAR v bližini

 

LIPQ - Ronchi Legionari, Italy
Oddaljenost od postaje: JZ 35km
Podatki zajeti: 19/02/2018 10:20
Pretežno oblačno
Pretežno oblačno
 Veter iz smeri V
Veter: V 37 km/h, Sunek vetra: 61 km/h
Temperatura: 5°C
Občutek mraza zaradi vetra: -1°C
Temp. rosišča: -4°C
Vlažnost: 53%
Tlak: 1019 hPa
Oblačnost: Pretežno oblačno
Vidljivost: 10 km
Podrobnosti o oblakih: Pretežno oblačno 1981 m
2018/02/19 09:20 LIPQ 190920Z 09020G33KT 9999 BKN065 05/M04 Q1019
LIVT - Trieste, Italy
Oddaljenost od postaje: J 49km
Podatki zajeti: 19/02/2018 09:55
Rahlo oblačno
Rahlo oblačno
 Veter iz smeri SSV
Veter: SSV 30 km/h, Sunek vetra: 61 km/h
Temperatura: 4°C
Občutek mraza zaradi vetra: -1°C
Temp. rosišča: -4°C
Vlažnost: 56%
Tlak: 1018 hPa
Oblačnost: Rahlo oblačno
Vidljivost: 10 km
Podrobnosti o oblakih: Rahlo oblačno 914 m
2018/02/19 08:55 LIVT 190855Z 03016G33KT 9999 FEW030 04/M04 Q1018 RMK BKN BKN080 QUK 4 QUL 3 NW VIS MAR 15 KM VIS MIN 9999
 
LIVO - Tarvisio, Italy
Oddaljenost od postaje: SSZ 49km
Podatki zajeti: 19/02/2018 09:55
Rahel sneg, Meglice, Oblačno
Rahel sneg, Meglice, Oblačno
 Veter iz smeri spremenljiv
Veter: spremenljiv 2 km/h
Temperatura: -2°C
Temp. rosišča: -4°C
Vlažnost: 86%
Tlak: 1018 hPa
Stanje: Rahel sneg, Meglice
Oblačnost: Oblačno
Vidljivost: 2 km
Podrobnosti o oblakih: Oblačno 183 m
2018/02/19 08:55 LIVO 190855Z VRB01KT 2000 -SN BR OVC006 M02/M04 Q1018 RMK OVC VIS MIN 2000
LIPI - Rivolto (it-Afb), Italy
Oddaljenost od postaje: ZJZ 57km
Podatki zajeti: 19/02/2018 09:55
Pretežno oblačno
Pretežno oblačno
 Veter iz smeri spremenljiv
Veter: spremenljiv 0 km/h
Temperatura: 5°C
Temp. rosišča: -3°C
Vlažnost: 57%
Tlak: 1019 hPa
Oblačnost: Pretežno oblačno
Vidljivost: 10 km
Podrobnosti o oblakih: Rahlo oblačno 1219 m
Delno oblačno 1524 m
Pretežno oblačno 2134 m
2018/02/19 08:55 LIPI 190855Z /////KT 9999 FEW040 SCT050 BKN070 05/M03 Q1019 RMK OVC VIS MIN 9999 WIND THR06 06014KT WIND THR24 06014KT BLU
 
LJLJ - Ljubljana/Brnik, Slovenia
Oddaljenost od postaje: VSV 59km
Podatki zajeti: 19/02/2018 10:30
Pretežno oblačno
Pretežno oblačno
 Veter iz smeri JV
Veter: JV 19 km/h
Temperatura: -1°C
Občutek mraza zaradi vetra: -7°C
Temp. rosišča: -4°C
Vlažnost: 80%
Tlak: 1021 hPa
Oblačnost: Pretežno oblačno
Vidljivost: 10 km
Podrobnosti o oblakih: Delno oblačno 457 m
Pretežno oblačno 1524 m
2018/02/19 09:30 LJLJ 190930Z 13010KT 9999 SCT015 BKN050 M01/M04 Q1021 NOSIG
LJPZ - Portoroz, Slovenia
Oddaljenost od postaje: J 68km
Podatki zajeti: 19/02/2018 10:30
Pretežno oblačno
Pretežno oblačno
 Veter iz smeri VSV
Veter: VSV 13 km/h
Temperatura: 6°C
Občutek mraza zaradi vetra: 3°C
Temp. rosišča: -3°C
Vlažnost: 53%
Tlak: 1018 hPa
Oblačnost: Pretežno oblačno
Vidljivost: 10 km
Podrobnosti o oblakih: Pretežno oblačno 1829 m
2018/02/19 09:30 LJPZ 190930Z 07007KT 030V110 9999 BKN060 06/M03 Q1018
 
LOWK - Klagenfurt(Civ/M, Austria
Oddaljenost od postaje: SV 78km
Podatki zajeti: 19/02/2018 10:20
Pretežno oblačno
Pretežno oblačno
 Veter iz smeri VJV
Veter: VJV 9 km/h
Temperatura: -1°C
Občutek mraza zaradi vetra: -4°C
Temp. rosišča: -4°C
Vlažnost: 80%
Tlak: 1021 hPa
Oblačnost: Pretežno oblačno
Vidljivost: 10 km
Podrobnosti o oblakih: Rahlo oblačno 914 m
Delno oblačno 1219 m
Pretežno oblačno 2134 m
2018/02/19 09:20 LOWK 190920Z 11005KT 070V140 9999 FEW030 SCT040 BKN070 M01/M04 Q1021 NOSIG
LIYW - Aviano (usaf), Italy
Oddaljenost od postaje: Z 86km
Podatki zajeti: 20/10/2015 15:58
Ni posodobljen
Jasno
Jasno
 Veter iz smeri JJZ
Veter: JJZ 6 km/h
Temperatura: 17°C
Temp. rosišča: 3°C
Vlažnost: 39%
Tlak: 1016.3 hPa
Oblačnost: Jasno
Vidljivost: 10 km
2015/10/20 13:58 LIYW 201358Z AUTO 21003KT 9999 CLR 17/03 A3001 RMK AO2 SLP167 T01660029
 
LIPA - Aviano (it/Us-Af, Italy
Oddaljenost od postaje: Z 89km
Podatki zajeti: 19/02/2018 08:55
Ni posodobljen
Pretežno oblačno
Pretežno oblačno
 Veter iz smeri VSV
Veter: VSV 15 km/h
Temperatura: 5°C
Občutek mraza zaradi vetra: 2°C
Temp. rosišča: -1°C
Vlažnost: 66%
Tlak: 1019 hPa
Oblačnost: Pretežno oblačno
Vidljivost: 10 km
Podrobnosti o oblakih: Delno oblačno 1524 m
Pretežno oblačno 2134 m
2018/02/19 07:55 LIPA 190755Z 07008KT 9999 SCT050 BKN070 05/M01 Q1019 RMK OVC VIS MIN 9999 WIND THR05 /////KT WIND THR23 /////KT A3010 BLU
LDRI - Rijeka/Omisalj, Croatia
Oddaljenost od postaje: JV 115km
Podatki zajeti: 19/02/2018 10:30
Delno oblačno
Delno oblačno
 Veter iz smeri VSV
Veter: VSV 15 km/h
Temperatura: 5°C
Občutek mraza zaradi vetra: 2°C
Temp. rosišča: -6°C
Vlažnost: 45%
Tlak: 1018 hPa
Oblačnost: Delno oblačno
Vidljivost: 10 km
Podrobnosti o oblakih: Rahlo oblačno 1311 m
Delno oblačno 2286 m
2018/02/19 09:30 LDRI 190930Z 06008KT 9999 FEW043 SCT075 05/M06 Q1018
 
LIPZ - Venezia/Tessera, Italy
Oddaljenost od postaje: ZJZ 127km
Podatki zajeti: 19/02/2018 10:20
Jasno
Jasno
 Veter iz smeri SV
Veter: SV 28 km/h
Temperatura: 6°C
Občutek mraza zaradi vetra: 2°C
Temp. rosišča: -3°C
Vlažnost: 53%
Tlak: 1019 hPa
Stanje: Jasno
Vidljivost: večja od 10 km
2018/02/19 09:20 LIPZ 190920Z 04015KT CAVOK 06/M03 Q1019 NOSIG
LDPL - Pula, Croatia
Oddaljenost od postaje: J 133km
Podatki zajeti: 19/02/2018 10:30
Oblačno
Oblačno
 Veter iz smeri VSV
Veter: VSV 26 km/h
Temperatura: 6°C
Občutek mraza zaradi vetra: 2°C
Temp. rosišča: -2°C
Vlažnost: 57%
Tlak: 1017 hPa
Oblačnost: Oblačno
Vidljivost: 10 km
Podrobnosti o oblakih: Oblačno 1524 m
2018/02/19 09:30 LDPL 190930Z 06014KT 030V090 9999 OVC050 06/M02 Q1017 TEMPO 06015G25KT
 
LIPS - Istrana (it-Afb), Italy
Oddaljenost od postaje: ZJZ 136km
Podatki zajeti: 19/02/2018 09:55
Pretežno oblačno
Pretežno oblačno
 Veter iz smeri VSV
Veter: VSV 22 km/h
Temperatura: 5°C
Občutek mraza zaradi vetra: 1°C
Temp. rosišča: 1°C
Vlažnost: 76%
Tlak: 1019 hPa
Oblačnost: Pretežno oblačno
Vidljivost: 10 km
Podrobnosti o oblakih: Pretežno oblačno 2134 m
2018/02/19 08:55 LIPS 190855Z 07012KT 9999 BKN070 05/01 Q1019 RMK BKN VIS MIN 9999 WIND THR26 07011KT WIND THR08 07013KT BLU
LIVD - Dobbiaco, Italy
Oddaljenost od postaje: ZSZ 137km
Podatki zajeti: 19/02/2018 09:55

 
2018/02/19 08:55 LIVD 190855Z ///10KT CAVOK M02/M08 Q1016 RMK FEW FEW070 VIS MIN 9999
 
LJCE - Cerklje, Slovenia
Oddaljenost od postaje: V 139km
Podatki zajeti: 19/02/2018 10:30
Oblačno
Oblačno
 Veter iz smeri V
Veter: V 11 km/h
Temperatura: 1°C
Občutek mraza zaradi vetra: -2°C
Temp. rosišča: -4°C
Vlažnost: 70%
Tlak: 1023 hPa
Oblačnost: Oblačno
Vidljivost: 10 km
Podrobnosti o oblakih: Oblačno 1372 m
2018/02/19 09:30 LJCE 190930Z 08006KT 050V110 9999 OVC045 01/M04 Q1023 RMK BLU
LOXZ - Zeltweg (mil), Austria
Oddaljenost od postaje: SSV 147km
Podatki zajeti: 19/02/2018 10:20
Pretežno oblačno
Pretežno oblačno
 Veter iz smeri spremenljiv
Veter: spremenljiv 6 km/h
Temperatura: -2°C
Temp. rosišča: -6°C
Vlažnost: 74%
Tlak: 1020 hPa
Oblačnost: Pretežno oblačno
Podrobnosti o oblakih: Rahlo oblačno 610 m
Pretežno oblačno 853 m
2018/02/19 09:20 LOXZ 190920Z VRB03KT 20KM FEW020SC BKN028SC M02/M06 Q1020 NOSIG